Time;durP1;ratioP1;P1;durP2;ratioP2;P2;SDS_P1;SDS_P2;PMS_P1;PMS_P2;Temp;Humidity;BMP_temperature;BMP_pressure;BME280_temperature;BME280_humidity;BME280_pressure;Samples;Min_cycle;Max_cycle;Signal;HPM_P1;HPM_P2
2022/03/25 00:02:54;;;;;;;;;;;;;;;6.65;56.07227;103187.3;;;;-80
2022/03/25 00:07:50;;;;;;;;;;;;;;;6.57;56.09473;103185;;;;-81
2022/03/25 00:12:50;;;;;;;;;;;;;;;6.51;56.12109;103182.2;;;;-81
2022/03/25 00:17:50;;;;;;;;;;;;;;;6.45;56.20117;103181.6;;;;-80
2022/03/25 00:18:56;;;;;;;38.8;16.1;;;;;;;;;;;;;-82
2022/03/25 00:22:50;;;;;;;;;;;;;;;6.39;56.25879;103183.9;;;;-80
2022/03/25 00:27:50;;;;;;;;;;;;;;;6.33;56.25195;103185.9;;;;-81
2022/03/25 00:32:51;;;;;;;;;;;;;;;6.26;56.3418;103185.9;;;;-80
2022/03/25 00:37:50;;;;;;;;;;;;;;;6.19;56.32227;103187.1;;;;-81
2022/03/25 00:42:50;;;;;;;;;;;;;;;6.11;56.42188;103181.1;;;;-81
2022/03/25 00:47:50;;;;;;;;;;;;;;;6.05;56.40234;103177.8;;;;-80
2022/03/25 00:48:56;;;;;;;34.7;15.5;;;;;;;;;;;;;-78
2022/03/25 00:52:50;;;;;;;;;;;;;;;6;56.42871;103172.2;;;;-80
2022/03/25 00:57:50;;;;;;;;;;;;;;;5.93;56.53223;103174.7;;;;-81
2022/03/25 01:02:50;;;;;;;;;;;;;;;5.87;56.50098;103167.5;;;;-79
2022/03/25 01:07:50;;;;;;;;;;;;;;;5.78;56.66504;103175.3;;;;-79
2022/03/25 01:12:53;;;;;;;;;;;;;;;5.71;56.63379;103175.3;;;;-80
2022/03/25 01:17:50;;;;;;;;;;;;;;;5.65;56.62598;103181.1;;;;-80
2022/03/25 01:18:56;;;;;;;36.5;16;;;;;;;;;;;;;-81
2022/03/25 01:22:50;;;;;;;;;;;;;;;5.6;56.70801;103181.5;;;;-81
2022/03/25 01:27:50;;;;;;;;;;;;;;;5.55;56.6123;103188.6;;;;-81
2022/03/25 01:32:50;;;;;;;;;;;;;;;5.48;56.68066;103189.6;;;;-80
2022/03/25 01:37:50;;;;;;;;;;;;;;;5.4;56.91309;103184.8;;;;-80
2022/03/25 01:42:50;;;;;;;;;;;;;;;5.33;56.95898;103183.7;;;;-81
2022/03/25 01:47:50;;;;;;;;;;;;;;;5.27;57.07227;103181.4;;;;-80
2022/03/25 01:48:56;;;;;;;43.1;17;;;;;;;;;;;;;-80
2022/03/25 01:52:51;;;;;;;;;;;;;;;5.2;56.99609;103175.8;;;;-80
2022/03/25 01:57:50;;;;;;;;;;;;;;;5.15;57.11133;103175.7;;;;-79
2022/03/25 02:02:50;;;;;;;;;;;;;;;5.1;57.10449;103173.7;;;;-79
2022/03/25 02:07:51;;;;;;;;;;;;;;;5.05;57.20703;103180;;;;-80
2022/03/25 02:12:50;;;;;;;;;;;;;;;5.01;57.08105;103179;;;;-80
2022/03/25 02:17:53;;;;;;;;;;;;;;;4.95;57.15039;103180.8;;;;-80
2022/03/25 02:18:57;;;;;;;37.7;15.9;;;;;;;;;;;;;-81
2022/03/25 02:22:50;;;;;;;;;;;;;;;4.87;57.22754;103178.3;;;;-79
2022/03/25 02:27:51;;;;;;;;;;;;;;;4.82;57.36328;103178.2;;;;-80
2022/03/25 02:32:51;;;;;;;;;;;;;;;4.78;57.29102;103176.4;;;;-78
2022/03/25 02:37:50;;;;;;;;;;;;;;;4.72;57.55859;103169.8;;;;-82
2022/03/25 02:42:50;;;;;;;;;;;;;;;4.67;57.32227;103167.1;;;;-80
2022/03/25 02:47:50;;;;;;;;;;;;;;;4.63;57.55762;103167.4;;;;-80
2022/03/25 02:48:55;;;;;;;35.7;15.5;;;;;;;;;;;;;-80
2022/03/25 02:52:50;;;;;;;;;;;;;;;4.57;57.49512;103165.9;;;;-80
2022/03/25 02:57:50;;;;;;;;;;;;;;;4.52;57.75293;103170.5;;;;-80
2022/03/25 03:02:53;;;;;;;;;;;;;;;4.47;57.61426;103170.8;;;;-80
2022/03/25 03:07:50;;;;;;;;;;;;;;;4.42;57.62891;103174.6;;;;-80
2022/03/25 03:12:50;;;;;;;;;;;;;;;4.37;57.72168;103172;;;;-81
2022/03/25 03:17:51;;;;;;;;;;;;;;;4.32;57.87891;103167.8;;;;-81
2022/03/25 03:19:04;;;;;;;37.1;14.1;;;;;;;;;;;;;-81
2022/03/25 03:22:50;;;;;;;;;;;;;;;4.28;57.75293;103168.1;;;;-81
2022/03/25 03:27:50;;;;;;;;;;;;;;;4.23;57.72461;103166.5;;;;-80
2022/03/25 03:32:55;;;;;;;;;;;;;;;4.16;57.8125;103165.3;;;;-78
2022/03/25 03:37:50;;;;;;;;;;;;;;;4.11;57.98242;103163.7;;;;-80
2022/03/25 03:42:50;;;;;;;;;;;;;;;4.06;57.86523;103161.5;;;;-80
2022/03/25 03:47:50;;;;;;;;;;;;;;;3.98;58.01953;103158.9;;;;-81
2022/03/25 03:48:54;;;;;;;36.6;14;;;;;;;;;;;;;-81
2022/03/25 03:52:56;;;;;;;;;;;;;;;3.96;57.90625;103155.3;;;;-81
2022/03/25 03:57:52;;;;;;;;;;;;;;;3.89;58.0293;103150.3;;;;-79
2022/03/25 04:02:50;;;;;;;;;;;;;;;3.86;58.05859;103151.1;;;;-79
2022/03/25 04:07:52;;;;;;;;;;;;;;;3.81;58.05078;103159.7;;;;-80
2022/03/25 04:12:50;;;;;;;;;;;;;;;3.77;58.22168;103162.5;;;;-79
2022/03/25 04:17:50;;;;;;;;;;;;;;;3.72;58.18262;103165.3;;;;-81
2022/03/25 04:18:54;;;;;;;36.3;13.7;;;;;;;;;;;;;-81
2022/03/25 04:22:50;;;;;;;;;;;;;;;3.69;58.1123;103171.7;;;;-79
2022/03/25 04:27:57;;;;;;;;;;;;;;;3.65;58.01953;103170.5;;;;-79
2022/03/25 04:32:50;;;;;;;;;;;;;;;3.6;58.11035;103169.9;;;;-79
2022/03/25 04:37:50;;;;;;;;;;;;;;;3.57;57.99707;103174.3;;;;-80
2022/03/25 04:42:50;;;;;;;;;;;;;;;3.5;58.17383;103175;;;;-81
2022/03/25 04:47:50;;;;;;;;;;;;;;;3.47;58.15918;103179.3;;;;-80
2022/03/25 04:48:54;;;;;;;33.3;12.6;;;;;;;;;;;;;-80
2022/03/25 04:52:50;;;;;;;;;;;;;;;3.43;58.19824;103182.7;;;;-81
2022/03/25 04:57:50;;;;;;;;;;;;;;;3.4;58.16016;103186.2;;;;-79
2022/03/25 05:02:50;;;;;;;;;;;;;;;3.36;58.26465;103192.7;;;;-80
2022/03/25 05:07:51;;;;;;;;;;;;;;;3.34;58.21875;103191.5;;;;-79
2022/03/25 05:12:50;;;;;;;;;;;;;;;3.27;58.18652;103193.3;;;;-81
2022/03/25 05:17:56;;;;;;;;;;;;;;;3.23;58.22559;103191.3;;;;-80
2022/03/25 05:18:54;;;;;;;29.1;12.3;;;;;;;;;;;;;-81
2022/03/25 05:22:50;;;;;;;;;;;;;;;3.21;58.13574;103190.7;;;;-78
2022/03/25 05:27:52;;;;;;;;;;;;;;;3.19;58.13184;103191;;;;-80
2022/03/25 05:32:50;;;;;;;;;;;;;;;3.13;58.04785;103192;;;;-80
2022/03/25 05:37:55;;;;;;;;;;;;;;;3.14;58.10254;103191.5;;;;-80
2022/03/25 05:42:51;;;;;;;;;;;;;;;3.11;58.06543;103198.4;;;;-79
2022/03/25 05:47:50;;;;;;;;;;;;;;;3.08;58.14941;103204.1;;;;-79
2022/03/25 05:48:53;;;;;;;27.7;11.1;;;;;;;;;;;;;-80
2022/03/25 05:52:51;;;;;;;;;;;;;;;3.09;57.9873;103208.8;;;;-80
2022/03/25 05:57:50;;;;;;;;;;;;;;;3.08;58.10645;103210.1;;;;-81
2022/03/25 06:02:50;;;;;;;;;;;;;;;3.11;58.06543;103210.1;;;;-81
2022/03/25 06:07:50;;;;;;;;;;;;;;;3.14;58.00391;103217.3;;;;-80
2022/03/25 06:12:50;;;;;;;;;;;;;;;3.17;57.97559;103222.6;;;;-79
2022/03/25 06:17:51;;;;;;;;;;;;;;;3.26;57.99805;103223.8;;;;-80
2022/03/25 06:18:52;;;;;;;28.5;12.1;;;;;;;;;;;;;-81
2022/03/25 06:22:50;;;;;;;;;;;;;;;3.42;57.70215;103225.7;;;;-80
2022/03/25 06:27:57;;;;;;;;;;;;;;;3.61;57.35547;103222.9;;;;-80
2022/03/25 06:32:50;;;;;;;;;;;;;;;3.78;57.23633;103226.9;;;;-79
2022/03/25 06:37:51;;;;;;;;;;;;;;;4;57.10059;103228.6;;;;-80
2022/03/25 06:42:50;;;;;;;;;;;;;;;4.22;56.63574;103230.9;;;;-81
2022/03/25 06:47:50;;;;;;;;;;;;;;;4.37;56.5791;103236.5;;;;-81
2022/03/25 06:48:52;;;;;;;33.1;13.1;;;;;;;;;;;;;-81
2022/03/25 06:52:50;;;;;;;;;;;;;;;4.67;55.77148;103242.3;;;;-80
2022/03/25 06:57:50;;;;;;;;;;;;;;;4.91;55.33008;103251.4;;;;-80
2022/03/25 07:02:52;;;;;;;;;;;;;;;5.17;54.94531;103254.2;;;;-79
2022/03/25 07:07:50;;;;;;;;;;;;;;;5.37;55.00293;103258;;;;-80
2022/03/25 07:12:50;;;;;;;;;;;;;;;5.58;54.9082;103256.7;;;;-80
2022/03/25 07:17:50;;;;;;;;;;;;;;;5.83;54.77441;103258.2;;;;-80
2022/03/25 07:18:52;;;;;;;35;14.8;;;;;;;;;;;;;-80
2022/03/25 07:22:54;;;;;;;;;;;;;;;6.06;54.60742;103265.1;;;;-81
2022/03/25 07:27:53;;;;;;;;;;;;;;;6.3;54.29492;103274.5;;;;-79
2022/03/25 07:32:50;;;;;;;;;;;;;;;6.59;53.95605;103275.3;;;;-78
2022/03/25 07:37:50;;;;;;;;;;;;;;;6.93;53.72168;103274.3;;;;-78
2022/03/25 07:42:50;;;;;;;;;;;;;;;7.29;53.7666;103272.6;;;;-80
2022/03/25 07:47:52;;;;;;;;;;;;;;;7.67;53.36035;103277.6;;;;-80
2022/03/25 07:48:52;;;;;;;32.7;15;;;;;;;;;;;;;-78
2022/03/25 07:52:51;;;;;;;;;;;;;;;8.15;53.20801;103285.6;;;;-80
2022/03/25 07:57:50;;;;;;;;;;;;;;;8.62;53.75391;103290.5;;;;-80
2022/03/25 08:02:53;;;;;;;;;;;;;;;9.17;54.06641;103293.5;;;;-80
2022/03/25 08:07:52;;;;;;;;;;;;;;;9.7;53.97656;103299.6;;;;-80
2022/03/25 08:12:50;;;;;;;;;;;;;;;10.22;53.47266;103305;;;;-80
2022/03/25 08:17:54;;;;;;;;;;;;;;;10.66;53.2041;103307.4;;;;-79
2022/03/25 08:18:52;;;;;;;37.7;17.6;;;;;;;;;;;;;-83
2022/03/25 08:22:50;;;;;;;;;;;;;;;11.22;52.66895;103312.3;;;;-82
2022/03/25 08:27:58;;;;;;;;;;;;;;;11.87;52.1543;103311.4;;;;-81
2022/03/25 08:32:50;;;;;;;;;;;;;;;12.4;51.5332;103314.7;;;;-81
2022/03/25 08:37:50;;;;;;;;;;;;;;;12.85;51.03613;103313.1;;;;-82
2022/03/25 08:42:50;;;;;;;;;;;;;;;13.26;50.29883;103314.1;;;;-81
2022/03/25 08:47:51;;;;;;;;;;;;;;;13.62;50.04688;103314.4;;;;-82
2022/03/25 08:48:53;;;;;;;38.2;19;;;;;;;;;;;;;-80
2022/03/25 08:52:50;;;;;;;;;;;;;;;14;49.47168;103317.2;;;;-81
2022/03/25 08:57:51;;;;;;;;;;;;;;;14.43;48.93359;103317.3;;;;-81
2022/03/25 09:02:50;;;;;;;;;;;;;;;14.76;48.64453;103315.8;;;;-80
2022/03/25 09:07:50;;;;;;;;;;;;;;;15.08;48.24023;103318.3;;;;-81
2022/03/25 09:12:50;;;;;;;;;;;;;;;15.46;47.30957;103314;;;;-82
2022/03/25 09:17:50;;;;;;;;;;;;;;;15.73;46.7959;103322.1;;;;-81
2022/03/25 09:18:55;;;;;;;39.3;19;;;;;;;;;;;;;-82
2022/03/25 09:22:53;;;;;;;;;;;;;;;16.02;46.25977;103325.6;;;;-82
2022/03/25 09:27:50;;;;;;;;;;;;;;;16.3;45.48633;103320.5;;;;-81
2022/03/25 09:32:50;;;;;;;;;;;;;;;16.67;44.68359;103317.4;;;;-80
2022/03/25 09:37:51;;;;;;;;;;;;;;;16.94;44.55371;103317.1;;;;-80
2022/03/25 09:42:50;;;;;;;;;;;;;;;17.19;43.81738;103311.7;;;;-81
2022/03/25 09:47:51;;;;;;;;;;;;;;;17.36;44.0166;103309.7;;;;-82
2022/03/25 09:48:57;;;;;;;38;18.3;;;;;;;;;;;;;-83
2022/03/25 09:52:50;;;;;;;;;;;;;;;17.65;43.53418;103313.7;;;;-82
2022/03/25 09:57:52;;;;;;;;;;;;;;;17.88;43.2373;103310.7;;;;-82
2022/03/25 10:02:50;;;;;;;;;;;;;;;18.06;42.52734;103307.3;;;;-82
2022/03/25 10:07:54;;;;;;;;;;;;;;;18.19;41.92383;103308.2;;;;-80
2022/03/25 10:12:51;;;;;;;;;;;;;;;18.33;42.11914;103312.1;;;;-81
2022/03/25 10:17:57;;;;;;;;;;;;;;;18.47;41.46094;103310.5;;;;-81
2022/03/25 10:19:00;;;;;;;39.4;20.6;;;;;;;;;;;;;-82
2022/03/25 10:23:03;;;;;;;;;;;;;;;18.55;41.70801;103304.4;;;;-83
2022/03/25 10:27:53;;;;;;;;;;;;;;;18.68;42.42676;103302.1;;;;-82
2022/03/25 10:32:51;;;;;;;;;;;;;;;18.93;44.0127;103303.5;;;;-82
2022/03/25 10:38:01;;;;;;;;;;;;;;;19.2;43.35547;103304;;;;-82
2022/03/25 10:43:01;;;;;;;;;;;;;;;19.42;46.43457;103304.3;;;;-81
2022/03/25 10:47:50;;;;;;;;;;;;;;;19.6;44.68457;103299.8;;;;-82
2022/03/25 10:49:01;;;;;;;34.8;19;;;;;;;;;;;;;-80
2022/03/25 10:52:50;;;;;;;;;;;;;;;19.8;46.04102;103308.7;;;;-82
2022/03/25 10:57:58;;;;;;;;;;;;;;;20.03;46.69238;103311.9;;;;-80
2022/03/25 11:02:55;;;;;;;;;;;;;;;20.22;46.34668;103305.4;;;;-83
2022/03/25 11:07:51;;;;;;;;;;;;;;;20.44;46.87207;103298.5;;;;-82
2022/03/25 11:12:51;;;;;;;;;;;;;;;20.63;47.15625;103296.2;;;;-79
2022/03/25 11:17:50;;;;;;;;;;;;;;;20.89;46.45117;103298.9;;;;-83
2022/03/25 11:19:03;;;;;;;32.2;16.3;;;;;;;;;;;;;-83
2022/03/25 11:22:52;;;;;;;;;;;;;;;21.07;46.72168;103295.4;;;;-82
2022/03/25 11:27:55;;;;;;;;;;;;;;;21.23;45.18066;103294.2;;;;-84
2022/03/25 11:33:06;;;;;;;;;;;;;;;21.34;44.83691;103293.2;;;;-80
2022/03/25 11:37:50;;;;;;;;;;;;;;;21.44;46.15332;103294.9;;;;-82
2022/03/25 11:42:52;;;;;;;;;;;;;;;21.58;45.25;103296.3;;;;-82
2022/03/25 11:48:04;;;;;;;;;;;;;;;21.69;45.14746;103294.6;;;;-83
2022/03/25 11:49:15;;;;;;;28.1;15.3;;;;;;;;;;;;;-81
2022/03/25 11:52:50;;;;;;;;;;;;;;;21.79;45.26074;103291.6;;;;-81
2022/03/25 11:57:50;;;;;;;;;;;;;;;21.88;45.50977;103287.9;;;;-82
2022/03/25 12:03:03;;;;;;;;;;;;;;;22.05;44.3457;103286.5;;;;-81
2022/03/25 12:08:01;;;;;;;;;;;;;;;22.13;43.65234;103288;;;;-84
2022/03/25 12:12:59;;;;;;;;;;;;;;;22.11;44.81055;103292.1;;;;-81
2022/03/25 12:17:55;;;;;;;;;;;;;;;22.16;43.80469;103282.8;;;;-82
2022/03/25 12:19:11;;;;;;;28.6;15.8;;;;;;;;;;;;;-82
2022/03/25 12:23:06;;;;;;;;;;;;;;;22.16;43.75879;103280.1;;;;-81
2022/03/25 12:27:50;;;;;;;;;;;;;;;22.18;43.71484;103282;;;;-85
2022/03/25 12:32:50;;;;;;;;;;;;;;;22.18;44.12891;103276.6;;;;-84
2022/03/25 12:38:06;;;;;;;;;;;;;;;22.19;43.29199;103272.4;;;;-82
2022/03/25 12:42:51;;;;;;;;;;;;;;;22.17;43.67969;103272.8;;;;-81
2022/03/25 12:47:52;;;;;;;;;;;;;;;22.13;44.41113;103264.2;;;;-81
2022/03/25 12:49:14;;;;;;;29.1;14.9;;;;;;;;;;;;;-81
2022/03/25 12:52:51;;;;;;;;;;;;;;;22.21;44.66016;103259;;;;-82
2022/03/25 12:57:50;;;;;;;;;;;;;;;22.26;43.83887;103253.4;;;;-82
2022/03/25 13:02:56;;;;;;;;;;;;;;;22.33;43.83301;103248.5;;;;-83
2022/03/25 13:07:52;;;;;;;;;;;;;;;22.4;43.66699;103251.1;;;;-81
2022/03/25 13:13:21;;;;;;;;;;;;;;;22.44;43.26953;103253.3;;;;-85
2022/03/25 13:17:55;;;;;;;;;;;;;;;22.46;43.54688;103254.4;;;;-83
2022/03/25 13:19:16;;;;;;;26;12.7;;;;;;;;;;;;;-82
2022/03/25 13:23:13;;;;;;;;;;;;;;;22.52;43.89844;103251.9;;;;-82
2022/03/25 13:27:51;;;;;;;;;;;;;;;22.58;43.44434;103249.2;;;;-83
2022/03/25 13:32:59;;;;;;;;;;;;;;;22.56;45.13184;103247.3;;;;-83
2022/03/25 13:38:00;;;;;;;;;;;;;;;22.65;44.77344;103239.6;;;;-81
2022/03/25 13:42:57;;;;;;;;;;;;;;;22.69;45.23633;103235.6;;;;-84
2022/03/25 13:47:59;;;;;;;;;;;;;;;22.76;44.80664;103237.9;;;;-85
2022/03/25 13:49:17;;;;;;;23.5;12.2;;;;;;;;;;;;;-83
2022/03/25 14:01:53;;;;;;;;;;;;;;;;;;;;;
2022/03/25 14:15:26;;;;;;;;;;;;;;;22.85;44.78125;103208.6;;;;-86
2022/03/25 14:19:32;;;;;;;21;12.8;;;;;;;;;;;;;-87
2022/03/25 14:22:34;;;;;;;;;;;;;;;22.79;44.98145;103206.4;;;;-85
2022/03/25 14:27:37;;;;;;;;;;;;;;;22.81;44.20313;103199.5;;;;-82
2022/03/25 14:32:37;;;;;;;;;;;;;;;22.82;43.82324;103191.4;;;;-84
2022/03/25 14:37:42;;;;;;;;;;;;;;;22.76;44.61133;103191.7;;;;-85
2022/03/25 14:42:37;;;;;;;;;;;;;;;22.78;43.52051;103191.9;;;;-82
2022/03/25 14:52:37;;;;;;;;;;;;;;;22.63;43.12793;103183.7;;;;-82
2022/03/25 14:57:55;;;;;;;;;;;;;;;22.52;44.10449;103180.8;;;;-82
2022/03/25 15:02:37;;;;;;;;;;;;;;;22.45;43.39648;103174.9;;;;-81
2022/03/25 15:07:35;;;;;;;;;;;;;;;22.35;43.7207;103173.1;;;;-83
2022/03/25 15:12:34;;;;;;;;;;;;;;;22.29;43.42773;103174;;;;-85
2022/03/25 15:17:35;;;;;;;;;;;;;;;22.19;43.47559;103166.5;;;;-83
2022/03/25 15:19:31;;;;;;;24;12.7;;;;;;;;;;;;;-86
2022/03/25 15:22:37;;;;;;;;;;;;;;;22.09;42.9375;103173.9;;;;-86
2022/03/25 15:27:33;;;;;;;;;;;;;;;21.98;42.51367;103173;;;;-84
2022/03/25 15:37:41;;;;;;;;;;;;;;;21.67;43.40137;103169.9;;;;-84
2022/03/25 15:42:35;;;;;;;;;;;;;;;21.51;43.20215;103169;;;;-84
2022/03/25 15:47:36;;;;;;;;;;;;;;;21.38;42.53613;103173.9;;;;-84
2022/03/25 15:49:35;;;;;;;27.1;13.9;;;;;;;;;;;;;-83
2022/03/25 15:52:33;;;;;;;;;;;;;;;21.2;42.8623;103174.3;;;;-83
2022/03/25 15:57:34;;;;;;;;;;;;;;;21.03;42.99609;103171.5;;;;-86
2022/03/25 16:02:34;;;;;;;;;;;;;;;20.84;42.9082;103162.8;;;;-84
2022/03/25 16:07:37;;;;;;;;;;;;;;;20.7;42.32129;103158.3;;;;-83
2022/03/25 16:12:45;;;;;;;;;;;;;;;20.51;42.5791;103162.3;;;;-83
2022/03/25 16:17:34;;;;;;;;;;;;;;;20.36;42.25586;103164.8;;;;-85
2022/03/25 16:19:48;;;;;;;26.5;13.9;;;;;;;;;;;;;-84
2022/03/25 16:22:45;;;;;;;;;;;;;;;20.21;42.4707;103166.9;;;;-84
2022/03/25 16:27:43;;;;;;;;;;;;;;;20;42.58789;103165.9;;;;-82
2022/03/25 16:32:48;;;;;;;;;;;;;;;19.85;42.20703;103159.5;;;;-83
2022/03/25 16:37:45;;;;;;;;;;;;;;;19.68;42.20215;103154.4;;;;-82
2022/03/25 16:42:35;;;;;;;;;;;;;;;19.49;42.26563;103156.9;;;;-82
2022/03/25 16:47:34;;;;;;;;;;;;;;;19.28;42.44922;103155.9;;;;-84
2022/03/25 16:49:39;;;;;;;24.4;13.2;;;;;;;;;;;;;-84
2022/03/25 16:52:34;;;;;;;;;;;;;;;19.04;42.62012;103161.6;;;;-82
2022/03/25 16:57:33;;;;;;;;;;;;;;;18.82;42.58887;103160.4;;;;-81
2022/03/25 17:02:33;;;;;;;;;;;;;;;18.56;43.03125;103165.1;;;;-81
2022/03/25 17:07:43;;;;;;;;;;;;;;;18.31;43.14258;103164.9;;;;-80
2022/03/25 17:12:33;;;;;;;;;;;;;;;18.03;43.35449;103167.3;;;;-81
2022/03/25 17:17:34;;;;;;;;;;;;;;;17.74;43.78027;103164.7;;;;-80
2022/03/25 17:19:41;;;;;;;29.3;14.5;;;;;;;;;;;;;-84
2022/03/25 17:22:35;;;;;;;;;;;;;;;17.45;43.94629;103165.6;;;;-83
2022/03/25 17:27:33;;;;;;;;;;;;;;;17.17;44.48535;103162;;;;-81
2022/03/25 17:32:33;;;;;;;;;;;;;;;16.88;44.7627;103160.4;;;;-82
2022/03/25 17:37:34;;;;;;;;;;;;;;;16.59;45.02734;103158;;;;-81
2022/03/25 17:42:34;;;;;;;;;;;;;;;16.32;45.30566;103160.8;;;;-82
2022/03/25 17:47:35;;;;;;;;;;;;;;;16.02;45.68359;103164.4;;;;-82
2022/03/25 17:49:48;;;;;;;30.7;14.5;;;;;;;;;;;;;-80
2022/03/25 17:52:36;;;;;;;;;;;;;;;15.71;46.09277;103170;;;;-79
2022/03/25 17:57:34;;;;;;;;;;;;;;;15.41;47.01074;103180.9;;;;-81
2022/03/25 18:02:36;;;;;;;;;;;;;;;15.12;47.02344;103189.4;;;;-84
2022/03/25 18:07:34;;;;;;;;;;;;;;;14.83;46.01172;103200.1;;;;-83
2022/03/25 18:12:34;;;;;;;;;;;;;;;14.57;45.89355;103206.1;;;;-83
2022/03/25 18:17:35;;;;;;;;;;;;;;;14.31;46.27148;103208.3;;;;-79
2022/03/25 18:19:42;;;;;;;29;14.3;;;;;;;;;;;;;-83
2022/03/25 18:22:36;;;;;;;;;;;;;;;14.06;46.52734;103211.1;;;;-82
2022/03/25 18:27:33;;;;;;;;;;;;;;;13.82;46.44629;103219.7;;;;-84
2022/03/25 18:32:38;;;;;;;;;;;;;;;13.58;46.63477;103220;;;;-80
2022/03/25 18:37:33;;;;;;;;;;;;;;;13.34;46.84473;103225.8;;;;-81
2022/03/25 18:42:38;;;;;;;;;;;;;;;13.1;47.12305;103224.9;;;;-82
2022/03/25 18:47:34;;;;;;;;;;;;;;;12.87;47.46973;103234.4;;;;-81
2022/03/25 18:49:44;;;;;;;28.9;13.4;;;;;;;;;;;;;-81
2022/03/25 18:52:34;;;;;;;;;;;;;;;12.65;47.62402;103239.1;;;;-82
2022/03/25 18:57:33;;;;;;;;;;;;;;;12.44;48.01758;103249.8;;;;-81
2022/03/25 19:02:33;;;;;;;;;;;;;;;12.24;48.18652;103249;;;;-81
2022/03/25 19:07:33;;;;;;;;;;;;;;;12.05;48.5791;103252.8;;;;-82
2022/03/25 19:12:33;;;;;;;;;;;;;;;11.84;48.78125;103256.8;;;;-83
2022/03/25 19:17:33;;;;;;;;;;;;;;;11.67;48.98535;103260.4;;;;-82
2022/03/25 19:19:48;;;;;;;27.7;12.5;;;;;;;;;;;;;-84
2022/03/25 19:22:35;;;;;;;;;;;;;;;11.49;49.21094;103267.6;;;;-82
2022/03/25 19:27:34;;;;;;;;;;;;;;;11.32;49.45996;103263.6;;;;-81
2022/03/25 19:32:34;;;;;;;;;;;;;;;11.15;49.6543;103268;;;;-81
2022/03/25 19:37:34;;;;;;;;;;;;;;;10.99;49.83789;103269;;;;-83
2022/03/25 19:42:37;;;;;;;;;;;;;;;10.84;50.03223;103272.7;;;;-80
2022/03/25 19:47:45;;;;;;;;;;;;;;;10.69;50.13672;103275.4;;;;-80
2022/03/25 19:49:47;;;;;;;25.9;11.2;;;;;;;;;;;;;-82
2022/03/25 19:52:33;;;;;;;;;;;;;;;10.55;50.42188;103278.8;;;;-79
2022/03/25 19:57:33;;;;;;;;;;;;;;;10.39;50.4707;103283.5;;;;-80
2022/03/25 20:02:39;;;;;;;;;;;;;;;10.26;50.6123;103281.2;;;;-80
2022/03/25 20:07:33;;;;;;;;;;;;;;;10.11;50.62891;103283;;;;-83
2022/03/25 20:12:37;;;;;;;;;;;;;;;9.99;50.83594;103288.6;;;;-82
2022/03/25 20:17:34;;;;;;;;;;;;;;;9.86;50.95605;103292.5;;;;-80
2022/03/25 20:19:47;;;;;;;23.5;10.4;;;;;;;;;;;;;-81
2022/03/25 20:22:38;;;;;;;;;;;;;;;9.74;51.05273;103297.5;;;;-80
2022/03/25 20:27:33;;;;;;;;;;;;;;;9.63;51.20801;103301.9;;;;-82
2022/03/25 20:32:33;;;;;;;;;;;;;;;9.52;51.29395;103304.4;;;;-81
2022/03/25 20:37:33;;;;;;;;;;;;;;;9.42;51.48242;103308.3;;;;-79
2022/03/25 20:42:33;;;;;;;;;;;;;;;9.32;51.54883;103308.7;;;;-81
2022/03/25 20:47:33;;;;;;;;;;;;;;;9.21;51.64746;103308.1;;;;-82
2022/03/25 20:49:48;;;;;;;25.6;10.7;;;;;;;;;;;;;-85
2022/03/25 20:52:33;;;;;;;;;;;;;;;9.1;51.60059;103316.8;;;;-80
2022/03/25 21:01:20;;;;;;;;;;;;;;;8.92;51.93457;103322.5;;;;-81
2022/03/25 21:06:20;;;;;;;;;;;;;;;8.83;52.03711;103320.3;;;;-81
2022/03/25 21:11:20;;;;;;;;;;;;;;;8.74;52.06934;103324.1;;;;-81
2022/03/25 21:16:20;;;;;;;;;;;;;;;8.66;52.14844;103326.2;;;;-80
2022/03/25 21:19:49;;;;;;;24.2;11.3;;;;;;;;;;;;;-80
2022/03/25 21:21:20;;;;;;;;;;;;;;;8.58;52.26074;103323.2;;;;-79
2022/03/25 21:26:21;;;;;;;;;;;;;;;8.5;52.24023;103325;;;;-79
2022/03/25 21:31:21;;;;;;;;;;;;;;;8.42;52.29688;103320.4;;;;-82
2022/03/25 21:36:20;;;;;;;;;;;;;;;8.33;52.41992;103325.1;;;;-79
2022/03/25 21:41:20;;;;;;;;;;;;;;;8.23;52.56348;103325.7;;;;-80
2022/03/25 21:46:21;;;;;;;;;;;;;;;8.16;52.58789;103329.7;;;;-80
2022/03/25 21:49:49;;;;;;;26.7;11.5;;;;;;;;;;;;;-80
2022/03/25 21:51:20;;;;;;;;;;;;;;;8.1;52.72363;103333.4;;;;-80
2022/03/25 21:56:20;;;;;;;;;;;;;;;8.01;52.60352;103338.4;;;;-81
2022/03/25 22:01:20;;;;;;;;;;;;;;;7.94;52.80469;103336.1;;;;-80
2022/03/25 22:06:20;;;;;;;;;;;;;;;7.84;52.79297;103339.2;;;;-81
2022/03/25 22:11:20;;;;;;;;;;;;;;;7.78;52.8291;103334.4;;;;-81
2022/03/25 22:16:20;;;;;;;;;;;;;;;7.71;52.9209;103339.3;;;;-82
2022/03/25 22:19:49;;;;;;;28.3;11.9;;;;;;;;;;;;;-80
2022/03/25 22:21:20;;;;;;;;;;;;;;;7.64;52.95703;103334.9;;;;-81
2022/03/25 22:26:20;;;;;;;;;;;;;;;7.55;53.05664;103334.3;;;;-80
2022/03/25 22:31:21;;;;;;;;;;;;;;;7.47;53.10254;103338.6;;;;-82
2022/03/25 22:36:20;;;;;;;;;;;;;;;7.39;53.24707;103342.8;;;;-81
2022/03/25 22:41:25;;;;;;;;;;;;;;;7.29;53.3457;103340.2;;;;-80
2022/03/25 22:46:20;;;;;;;;;;;;;;;7.22;53.38184;103345.5;;;;-82
2022/03/25 22:49:49;;;;;;;30.3;11.9;;;;;;;;;;;;;-81
2022/03/25 22:51:20;;;;;;;;;;;;;;;7.15;53.29492;103346.6;;;;-81
2022/03/25 22:56:20;;;;;;;;;;;;;;;7.08;53.5293;103342;;;;-80
2022/03/25 23:01:34;;;;;;;;;;;;;;;7.01;53.44336;103345.9;;;;-81
2022/03/25 23:06:21;;;;;;;;;;;;;;;6.91;53.66406;103343.1;;;;-80
2022/03/25 23:11:21;;;;;;;;;;;;;;;6.83;53.82031;103344;;;;-81
2022/03/25 23:16:22;;;;;;;;;;;;;;;6.78;53.70313;103348.8;;;;-81
2022/03/25 23:19:49;;;;;;;28.3;12.2;;;;;;;;;;;;;-80
2022/03/25 23:21:25;;;;;;;;;;;;;;;6.71;53.95996;103347.2;;;;-80
2022/03/25 23:26:22;;;;;;;;;;;;;;;6.65;53.97461;103348;;;;-80
2022/03/25 23:31:21;;;;;;;;;;;;;;;6.6;53.8457;103355.2;;;;-81
2022/03/25 23:36:20;;;;;;;;;;;;;;;6.5;53.98828;103345.1;;;;-80
2022/03/25 23:41:20;;;;;;;;;;;;;;;6.44;54.03613;103349.1;;;;-83
2022/03/25 23:46:20;;;;;;;;;;;;;;;6.37;54.12598;103352.6;;;;-81
2022/03/25 23:49:49;;;;;;;28;11.8;;;;;;;;;;;;;-81
2022/03/25 23:51:20;;;;;;;;;;;;;;;6.29;54.18359;103351.2;;;;-81
2022/03/25 23:56:21;;;;;;;;;;;;;;;6.23;54.1875;103356.9;;;;-82
